Morgan Park, Minnesota
Current Conditions -  °F | °C
As of 8:35 PM on Sunday 21 Dec 2014 (Local Time) from KSUW Reporting Station
Overcast Overcast  
Wind Chill: 31°   Ceiling: 1200
Heat Index: 35°   Visibility: 10mi
Dew Point: 33°   Wind: 5mph
Humidity: 93%   Direction: 170°S
Pressure: 29.75"   Gusts: NA
Location:  46.6753°N, 92.2408°W
Report Text: KSUW 220235Z AUTO 17004KT 10SM OVC012 02/01 A2975 RMK AO2 T00150005
Loading
Personal Weather Stations






























Interactive Weather Map New forecast layout! Learn more

10-Day Weather Forecast

Advertisements
Track Severe Weather on mobile